Time;durP1;ratioP1;P1;durP2;ratioP2;P2;SDS_P1;SDS_P2;PMS_P1;PMS_P2;Temp;Humidity;BMP_temperature;BMP_pressure;BME280_temperature;BME280_humidity;BME280_pressure;Samples;Min_cycle;Max_cycle;Signal;HPM_P1;HPM_P2
2023/01/10 00:01:07;;;;;;;8.55;2.90;;;4.90;99.90;;;;;;5033870;28;20470;-84
2023/01/10 00:03:33;;;;;;;9.38;2.97;;;4.90;99.90;;;;;;5016156;28;20049;-83
2023/01/10 00:05:58;;;;;;;11.43;3.83;;;4.90;99.90;;;;;;5033695;28;20048;-85
2023/01/10 00:08:24;;;;;;;8.20;2.90;;;4.90;99.90;;;;;;5000002;28;20136;-85
2023/01/10 00:10:50;;;;;;;8.20;2.85;;;4.80;99.90;;;;;;5032557;28;20081;-86
2023/01/10 00:13:22;;;;;;;11.23;3.17;;;4.80;99.90;;;;;;5034041;28;20092;-84
2023/01/10 00:15:49;;;;;;;13.90;3.60;;;4.80;99.90;;;;;;5000036;28;20059;-83
2023/01/10 00:18:15;;;;;;;7.30;3.00;;;4.90;99.90;;;;;;4999871;28;20053;-82
2023/01/10 00:20:40;;;;;;;12.57;2.85;;;4.80;99.90;;;;;;4999852;28;20458;-83
2023/01/10 00:23:06;;;;;;;15.98;3.72;;;5.00;99.90;;;;;;4999733;28;20045;-85
2023/01/10 00:25:33;;;;;;;13.70;3.25;;;4.80;99.90;;;;;;5016131;28;20454;-86
2023/01/10 00:28:09;;;;;;;;;;;4.80;99.90;;;;;;5016578;28;20132;-83
2023/01/10 00:30:37;;;;;;;15.80;3.88;;;4.70;99.90;;;;;;5033770;28;20317;-85
2023/01/10 00:33:03;;;;;;;19.05;3.65;;;4.70;99.90;;;;;;4999788;28;20049;-85
2023/01/10 00:35:29;;;;;;;14.23;3.58;;;4.60;99.90;;;;;;4998897;28;20049;-83
2023/01/10 00:38:00;;;;;;;15.70;3.40;;;4.60;99.90;;;;;;4981033;28;20053;-86
2023/01/10 00:40:26;;;;;;;13.75;4.00;;;4.50;99.90;;;;;;5013854;28;20057;-85
2023/01/10 00:45:36;;;;;;;12.80;4.38;;;4.50;99.90;;;;;;4996519;28;20545;-84
2023/01/10 00:48:01;;;;;;;10.80;4.22;;;4.40;99.90;;;;;;5014018;28;20137;-82
2023/01/10 00:50:27;;;;;;;11.63;3.70;;;4.40;99.90;;;;;;4984464;28;20045;-82
2023/01/10 00:52:52;;;;;;;12.35;4.00;;;4.40;99.90;;;;;;4980780;28;20050;-85
2023/01/10 00:55:18;;;;;;;15.35;4.63;;;4.30;99.90;;;;;;4996417;28;20064;-85
2023/01/10 00:57:44;;;;;;;21.02;4.43;;;4.30;99.90;;;;;;4996479;28;20046;-84
2023/01/10 01:00:11;;;;;;;14.43;3.97;;;4.30;99.90;;;;;;4996397;28;20508;-83
2023/01/10 01:02:36;;;;;;;17.52;4.45;;;4.40;99.90;;;;;;4980068;28;20053;-85
2023/01/10 01:05:03;;;;;;;10.75;3.90;;;4.40;99.90;;;;;;4980377;28;20046;-83
2023/01/10 01:07:29;;;;;;;18.13;4.22;;;4.40;99.90;;;;;;4980302;28;20136;-84
2023/01/10 01:12:38;;;;;;;14.02;4.00;;;4.50;99.90;;;;;;5013720;28;20046;-86
2023/01/10 01:15:04;;;;;;;11.43;4.00;;;4.50;99.90;;;;;;4980073;28;20100;-85
2023/01/10 01:17:30;;;;;;;20.97;4.70;;;4.50;99.90;;;;;;5013394;28;20073;-86
2023/01/10 01:19:56;;;;;;;22.80;4.38;;;4.50;99.90;;;;;;4995963;28;20042;-85
2023/01/10 01:22:21;;;;;;;14.30;4.00;;;4.60;99.90;;;;;;4998636;28;20143;-85
2023/01/10 01:24:47;;;;;;;18.10;3.80;;;4.50;99.90;;;;;;5016994;28;20034;-83
2023/01/10 01:27:12;;;;;;;16.27;4.63;;;4.50;99.90;;;;;;5017002;28;20042;-83
2023/01/10 01:29:38;;;;;;;14.50;4.00;;;4.60;99.90;;;;;;4983249;28;20096;-83
2023/01/10 01:32:04;;;;;;;15.38;4.85;;;4.60;99.90;;;;;;5016751;28;20038;-85
2023/01/10 01:34:29;;;;;;;13.70;3.85;;;5.10;99.90;;;;;;4983334;28;20053;-85
2023/01/10 01:36:57;;;;;;;21.90;5.15;;;4.60;99.90;;;;;;5028743;28;20056;-86
2023/01/10 01:39:23;;;;;;;24.33;4.80;;;4.60;99.90;;;;;;5019495;28;20064;-82
2023/01/10 01:41:57;;;;;;;16.13;4.07;;;4.60;99.90;;;;;;5018781;28;20088;-86
2023/01/10 01:44:28;;;;;;;14.88;4.15;;;4.70;99.90;;;;;;5018709;28;20053;-85
2023/01/10 01:47:03;;;;;;;16.52;4.35;;;4.70;99.90;;;;;;5002717;28;20093;-84
2023/01/10 01:49:30;;;;;;;29.70;5.50;;;4.70;99.90;;;;;;5003386;28;20509;-81
2023/01/10 01:52:00;;;;;;;16.38;3.90;;;5.10;99.90;;;;;;5024327;28;20041;-83
2023/01/10 01:54:26;;;;;;;18.95;4.53;;;4.70;99.90;;;;;;5018831;28;20041;-85
2023/01/10 01:57:09;;;;;;;16.05;4.82;;;4.80;99.90;;;;;;5002485;28;20464;-83
2023/01/10 01:59:39;;;;;;;16.58;3.97;;;4.70;99.90;;;;;;5036097;28;20103;-85
2023/01/10 02:02:11;;;;;;;21.80;3.83;;;5.50;99.90;;;;;;5036321;28;20053;-83
2023/01/10 02:05:04;;;;;;;18.83;4.78;;;4.80;99.90;;;;;;5002373;28;20049;-85
2023/01/10 02:07:36;;;;;;;17.17;3.95;;;4.70;99.90;;;;;;5001202;28;20059;-83
2023/01/10 02:10:28;;;;;;;17.17;4.55;;;4.70;99.90;;;;;;5002013;28;20480;-86
2023/01/10 02:12:58;;;;;;;16.83;4.30;;;4.70;99.90;;;;;;5002064;28;20049;-83
2023/01/10 02:15:24;;;;;;;13.18;4.47;;;4.80;99.90;;;;;;5018211;28;20048;-84
2023/01/10 02:17:51;;;;;;;14.77;3.83;;;4.60;99.90;;;;;;5018383;28;20038;-87
2023/01/10 02:20:19;;;;;;;15.25;3.67;;;4.60;99.90;;;;;;5018274;28;20041;-85
2023/01/10 02:23:21;;;;;;;17.83;3.83;;;4.60;99.90;;;;;;5018040;28;20056;-83
2023/01/10 02:26:13;;;;;;;18.30;4.00;;;4.60;99.90;;;;;;5035835;28;20053;-86
2023/01/10 02:29:12;;;;;;;18.30;4.53;;;4.50;99.90;;;;;;5036128;28;20077;-85
2023/01/10 02:31:46;;;;;;;;;;;4.50;99.90;;;;;;5018693;28;20051;-84
2023/01/10 02:34:27;;;;;;;13.02;3.70;;;4.40;99.90;;;;;;5017098;28;19991;-85
2023/01/10 02:37:07;;;;;;;19.48;4.07;;;4.40;99.90;;;;;;5035352;28;20123;-85
2023/01/10 02:39:59;;;;;;;11.98;3.90;;;4.40;99.90;;;;;;5001619;28;20052;-86
2023/01/10 02:42:34;;;;;;;11.95;3.90;;;4.40;99.90;;;;;;4996901;28;20061;-83
2023/01/10 02:45:12;;;;;;;12.98;3.97;;;4.40;99.90;;;;;;5017846;28;20494;-85
2023/01/10 02:47:40;;;;;;;13.93;3.80;;;4.40;99.90;;;;;;5018104;28;20037;-83
2023/01/10 02:50:29;;;;;;;13.43;3.60;;;4.30;99.90;;;;;;5017551;28;20038;-83
2023/01/10 02:52:58;;;;;;;15.60;4.25;;;4.30;99.90;;;;;;5042094;28;20607;-84
2023/01/10 02:55:51;;;;;;;16.48;3.38;;;4.20;99.90;;;;;;5017649;28;20073;-82
2023/01/10 02:59:07;;;;;;;11.13;3.13;;;4.20;99.90;;;;;;5004344;28;20057;-85
2023/01/10 03:01:50;;;;;;;12.98;3.70;;;4.20;99.90;;;;;;4904192;29;20147;-87
2023/01/10 03:04:28;;;;;;;16.58;4.00;;;4.10;99.90;;;;;;5025834;28;20061;-84
2023/01/10 03:06:58;;;;;;;;;;;4.10;99.90;;;;;;5001714;28;20140;-86
2023/01/10 03:09:39;;;;;;;20.17;3.80;;;4.10;99.90;;;;;;5035179;28;20387;-87
2023/01/10 03:12:34;;;;;;;16.83;4.10;;;4.20;99.90;;;;;;5017295;28;20045;-83
2023/01/10 03:15:03;;;;;;;19.55;4.05;;;4.20;99.90;;;;;;5001291;28;20455;-84
2023/01/10 03:17:29;;;;;;;11.82;3.78;;;4.20;99.90;;;;;;5001001;28;20362;-82
2023/01/10 03:20:01;;;;;;;13.30;3.80;;;4.20;99.90;;;;;;5034778;28;20053;-82
2023/01/10 03:22:29;;;;;;;12.88;3.40;;;4.20;99.90;;;;;;5017312;28;20500;-85
2023/01/10 03:24:58;;;;;;;17.30;4.40;;;4.20;99.90;;;;;;5000790;28;20054;-83
2023/01/10 03:27:34;;;;;;;16.42;4.03;;;4.10;99.90;;;;;;5000722;28;20375;-85
2023/01/10 03:30:04;;;;;;;14.32;4.10;;;4.20;99.90;;;;;;5017025;28;20533;-82
2023/01/10 03:32:31;;;;;;;16.90;4.10;;;4.10;99.90;;;;;;5016773;28;20037;-84
2023/01/10 03:34:58;;;;;;;;;;;4.20;99.90;;;;;;5017271;28;20176;-82
2023/01/10 03:37:34;;;;;;;16.52;3.67;;;4.20;99.90;;;;;;5033877;28;19928;-83
2023/01/10 03:40:23;;;;;;;13.48;3.70;;;4.20;99.90;;;;;;5000397;28;20478;-84
2023/01/10 03:46:01;;;;;;;14.20;3.28;;;4.20;99.90;;;;;;5033971;28;20053;-83
2023/01/10 03:48:31;;;;;;;14.88;3.63;;;4.20;99.90;;;;;;5000487;28;20137;-83
2023/01/10 03:50:59;;;;;;;12.80;3.20;;;5.50;99.90;;;;;;5033908;28;20045;-86
2023/01/10 03:53:25;;;;;;;16.75;3.72;;;4.30;99.90;;;;;;5038910;28;20136;-82
2023/01/10 03:55:50;;;;;;;18.95;4.75;;;4.40;99.90;;;;;;5035405;28;20080;-82
2023/01/10 03:58:20;;;;;;;12.48;3.40;;;4.30;99.90;;;;;;5033767;28;20048;-83
2023/01/10 04:00:48;;;;;;;14.13;3.35;;;4.30;99.90;;;;;;5000068;28;20046;-83
2023/01/10 04:03:15;;;;;;;17.10;3.63;;;4.30;99.90;;;;;;5000061;28;20397;-83
2023/01/10 04:05:41;;;;;;;12.45;3.42;;;4.20;99.90;;;;;;4999906;28;20124;-85
2023/01/10 04:08:07;;;;;;;18.58;3.92;;;4.20;99.90;;;;;;5000014;28;20375;-83
2023/01/10 04:10:33;;;;;;;16.20;3.83;;;4.20;99.90;;;;;;5033537;28;20038;-84
2023/01/10 04:13:00;;;;;;;11.13;3.35;;;4.10;99.90;;;;;;5015830;28;20512;-86
2023/01/10 04:15:26;;;;;;;18.00;3.63;;;4.10;99.90;;;;;;5016192;28;20125;-83
2023/01/10 04:17:51;;;;;;;11.68;2.70;;;4.10;99.90;;;;;;5015867;28;20124;-84
2023/01/10 04:20:18;;;;;;;13.95;3.38;;;4.10;99.90;;;;;;5000114;28;20045;-86
2023/01/10 04:22:48;;;;;;;16.37;3.27;;;4.10;99.90;;;;;;5016263;28;20474;-83
2023/01/10 04:25:14;;;;;;;14.68;3.83;;;4.70;99.90;;;;;;4999776;28;20053;-85
2023/01/10 04:27:40;;;;;;;12.73;3.40;;;4.10;99.90;;;;;;5016689;28;20075;-82
2023/01/10 04:30:07;;;;;;;13.05;3.60;;;4.80;99.90;;;;;;5015936;28;20776;-86
2023/01/10 04:32:32;;;;;;;9.95;3.25;;;4.20;99.90;;;;;;5033505;28;20405;-85
2023/01/10 04:34:58;;;;;;;19.85;3.47;;;4.30;99.90;;;;;;5015984;28;20049;-84
2023/01/10 04:37:23;;;;;;;15.98;3.65;;;4.30;99.90;;;;;;5033526;28;20053;-85
2023/01/10 04:39:49;;;;;;;17.70;4.28;;;4.30;99.90;;;;;;4999871;28;20524;-84
2023/01/10 04:42:16;;;;;;;13.55;3.55;;;4.40;99.90;;;;;;4999785;28;20092;-83
2023/01/10 04:44:41;;;;;;;14.77;3.65;;;4.50;99.90;;;;;;5016635;28;20049;-83
2023/01/10 04:47:07;;;;;;;17.35;3.28;;;4.50;99.90;;;;;;5016114;28;20559;-85
2023/01/10 04:49:33;;;;;;;13.57;3.30;;;4.60;99.90;;;;;;5015971;28;20049;-84
2023/01/10 04:51:58;;;;;;;13.52;3.38;;;4.60;99.90;;;;;;4999660;28;20045;-83
2023/01/10 04:54:24;;;;;;;18.08;2.97;;;4.70;99.90;;;;;;5019602;28;20053;-81
2023/01/10 04:56:50;;;;;;;18.60;3.55;;;4.70;99.90;;;;;;5039128;28;20053;-84
2023/01/10 04:59:16;;;;;;;22.98;3.50;;;4.80;99.90;;;;;;5019570;28;20042;-86
2023/01/10 05:01:41;;;;;;;15.50;3.78;;;4.80;99.90;;;;;;5003236;28;20474;-84
2023/01/10 05:04:08;;;;;;;14.57;3.33;;;4.80;99.90;;;;;;5003224;28;20041;-86
2023/01/10 05:06:33;;;;;;;12.93;3.40;;;4.80;99.90;;;;;;5037157;28;20045;-83
2023/01/10 05:08:59;;;;;;;14.63;3.28;;;4.80;99.90;;;;;;5003239;28;20052;-85
2023/01/10 05:11:24;;;;;;;17.15;3.38;;;4.80;99.90;;;;;;5036432;28;20093;-85
2023/01/10 05:13:50;;;;;;;20.13;3.50;;;4.70;99.90;;;;;;5003449;28;20045;-85
2023/01/10 05:16:16;;;;;;;23.50;3.58;;;4.80;99.90;;;;;;5003117;28;20045;-86
2023/01/10 05:18:42;;;;;;;18.50;3.58;;;4.80;99.90;;;;;;5019489;28;20042;-84
2023/01/10 05:21:09;;;;;;;17.30;4.25;;;4.80;99.90;;;;;;5019751;28;20085;-87
2023/01/10 05:23:36;;;;;;;23.08;4.13;;;4.80;99.90;;;;;;5019440;28;20053;-83
2023/01/10 05:26:13;;;;;;;13.60;3.97;;;4.80;99.90;;;;;;5019230;28;20045;-83
2023/01/10 05:28:40;;;;;;;18.58;3.90;;;4.90;99.90;;;;;;5019704;28;20042;-85
2023/01/10 05:31:11;;;;;;;19.42;4.13;;;5.70;99.90;;;;;;5019677;28;20551;-86
2023/01/10 05:33:37;;;;;;;19.08;3.67;;;4.90;99.90;;;;;;5003001;28;20088;-84
2023/01/10 05:36:04;;;;;;;14.77;4.00;;;4.90;99.90;;;;;;5018828;28;20045;-85
2023/01/10 05:38:30;;;;;;;16.65;4.15;;;4.90;99.90;;;;;;5002809;28;20085;-86
2023/01/10 05:40:57;;;;;;;15.55;4.72;;;4.80;99.90;;;;;;5018971;28;20045;-85
2023/01/10 05:43:23;;;;;;;14.43;3.80;;;4.90;99.90;;;;;;5018716;28;20133;-85
2023/01/10 05:45:49;;;;;;;13.23;3.90;;;5.10;99.90;;;;;;5019242;28;20099;-84
2023/01/10 05:48:15;;;;;;;17.58;4.13;;;4.80;99.90;;;;;;5018880;28;20049;-84
2023/01/10 05:50:41;;;;;;;16.00;5.43;;;4.90;99.90;;;;;;5002344;28;20038;-84
2023/01/10 05:53:06;;;;;;;16.58;4.45;;;4.90;99.90;;;;;;5019106;28;20056;-91
2023/01/10 05:55:32;;;;;;;16.38;4.38;;;4.90;99.90;;;;;;5042283;28;20038;-81
2023/01/10 05:57:58;;;;;;;13.67;3.80;;;5.00;99.90;;;;;;5024244;28;20041;-86
2023/01/10 06:00:24;;;;;;;19.15;4.57;;;5.00;99.90;;;;;;5018798;28;20806;-86
2023/01/10 06:02:50;;;;;;;18.60;4.82;;;5.10;99.90;;;;;;5002665;28;20045;-85
2023/01/10 06:05:16;;;;;;;19.90;4.32;;;5.10;99.90;;;;;;5018597;28;20037;-87
2023/01/10 06:07:41;;;;;;;18.55;5.05;;;5.10;99.90;;;;;;5017387;28;20402;-85
2023/01/10 06:10:07;;;;;;;25.58;3.95;;;5.10;99.90;;;;;;5017911;28;20080;-84
2023/01/10 06:12:33;;;;;;;21.67;4.88;;;5.10;99.90;;;;;;5035521;28;20405;-84
2023/01/10 06:14:58;;;;;;;25.33;4.55;;;5.10;99.90;;;;;;5018463;28;20092;-86
2023/01/10 06:17:24;;;;;;;20.52;4.80;;;5.10;99.90;;;;;;5036024;28;20049;-84
2023/01/10 06:19:51;;;;;;;16.02;5.18;;;5.10;99.90;;;;;;5002033;28;20045;-84
2023/01/10 06:22:16;;;;;;;17.23;3.95;;;5.20;99.90;;;;;;5001933;28;20108;-85
2023/01/10 06:24:42;;;;;;;10.07;4.32;;;5.20;99.90;;;;;;5018414;28;20037;-85
2023/01/10 06:27:08;;;;;;;14.90;3.80;;;5.20;99.90;;;;;;5018058;28;20120;-85
2023/01/10 06:29:33;;;;;;;17.25;4.40;;;5.20;99.90;;;;;;5001663;28;20073;-86
2023/01/10 06:31:59;;;;;;;10.75;4.03;;;5.20;99.90;;;;;;5002204;28;20045;-85
2023/01/10 06:34:24;;;;;;;8.90;3.47;;;5.20;99.90;;;;;;5017813;28;20071;-84
2023/01/10 06:36:50;;;;;;;16.85;4.28;;;5.10;99.90;;;;;;5017553;28;20049;-87
2023/01/10 06:39:16;;;;;;;15.38;4.13;;;5.10;99.90;;;;;;5002013;28;20056;-89
2023/01/10 06:41:42;;;;;;;19.23;3.95;;;5.10;99.90;;;;;;5017959;28;20042;-86
2023/01/10 06:44:08;;;;;;;19.92;4.38;;;5.10;99.90;;;;;;5035441;28;20041;-88
2023/01/10 06:46:34;;;;;;;14.05;4.25;;;5.00;99.90;;;;;;5001223;28;20404;-84
2023/01/10 06:48:59;;;;;;;16.27;3.83;;;5.00;99.90;;;;;;5035204;28;20037;-86
2023/01/10 06:51:25;;;;;;;14.45;3.60;;;4.90;99.90;;;;;;5001500;28;20056;-88
2023/01/10 06:53:51;;;;;;;19.25;4.93;;;4.90;99.90;;;;;;5017801;28;20466;-87
2023/01/10 06:56:16;;;;;;;16.83;3.80;;;4.90;99.90;;;;;;5035520;28;20478;-87
2023/01/10 06:58:42;;;;;;;16.80;4.22;;;4.90;99.90;;;;;;5013880;28;20041;-88
2023/01/10 07:01:16;;;;;;;20.45;4.50;;;4.90;99.90;;;;;;5001638;28;20452;-86
2023/01/10 07:03:42;;;;;;;21.23;4.95;;;3.80;99.90;;;;;;5017483;28;20491;-83
2023/01/10 07:06:09;;;;;;;15.18;4.60;;;4.80;99.90;;;;;;5001034;28;20088;-85
2023/01/10 07:08:39;;;;;;;18.63;4.05;;;4.80;99.90;;;;;;5016943;28;20489;-86
2023/01/10 07:11:06;;;;;;;17.50;4.60;;;4.80;99.90;;;;;;5000746;28;20041;-86
2023/01/10 07:13:32;;;;;;;21.75;4.70;;;4.80;99.90;;;;;;5034720;28;20045;-87
2023/01/10 07:16:10;;;;;;;20.30;4.18;;;4.80;99.90;;;;;;5017114;28;20068;-85
2023/01/10 07:18:36;;;;;;;;;;;4.80;99.90;;;;;;5000921;28;20119;-83
2023/01/10 07:21:03;;;;;;;14.00;4.53;;;4.80;99.90;;;;;;5034421;28;19928;-87
2023/01/10 07:23:30;;;;;;;21.30;4.23;;;6.10;99.90;;;;;;5017179;28;20393;-85
2023/01/10 07:25:56;;;;;;;23.70;5.20;;;4.90;99.90;;;;;;5017122;28;20276;-85
2023/01/10 07:28:22;;;;;;;21.45;4.78;;;4.90;99.90;;;;;;5034944;28;20068;-82
2023/01/10 07:30:48;;;;;;;17.50;4.80;;;4.90;99.90;;;;;;5034440;28;20042;-85
2023/01/10 07:33:14;;;;;;;14.48;4.47;;;5.00;99.90;;;;;;5034339;28;20406;-83
2023/01/10 07:35:40;;;;;;;14.75;4.80;;;5.00;99.90;;;;;;4998642;28;20053;-86
2023/01/10 07:38:06;;;;;;;16.08;4.18;;;5.00;99.90;;;;;;4997381;28;20049;-85
2023/01/10 07:40:31;;;;;;;22.48;5.85;;;5.00;99.90;;;;;;4997580;28;20037;-82
2023/01/10 07:42:58;;;;;;;16.92;4.80;;;5.10;99.90;;;;;;4981389;28;20109;-86
2023/01/10 07:45:25;;;;;;;20.33;4.90;;;5.00;99.90;;;;;;4996299;28;20495;-83
2023/01/10 07:47:59;;;;;;;22.20;4.60;;;5.00;99.90;;;;;;4997210;28;20042;-83
2023/01/10 07:50:26;;;;;;;23.65;4.93;;;5.00;99.90;;;;;;4996476;28;20048;-81
2023/01/10 07:52:52;;;;;;;;;;;4.90;99.90;;;;;;5014701;28;20402;-82
2023/01/10 07:55:18;;;;;;;17.60;4.53;;;4.90;99.90;;;;;;4981020;28;19921;-87
2023/01/10 07:57:44;;;;;;;20.77;4.90;;;4.90;99.90;;;;;;4997994;28;20042;-83
2023/01/10 08:00:11;;;;;;;21.77;5.30;;;4.90;99.90;;;;;;5015441;28;20124;-84
2023/01/10 08:02:36;;;;;;;21.40;4.68;;;4.80;99.90;;;;;;4980520;28;20289;-82
2023/01/10 08:05:02;;;;;;;18.83;5.40;;;4.90;99.90;;;;;;4997164;28;20108;-83
2023/01/10 08:07:29;;;;;;;16.60;4.88;;;4.90;99.90;;;;;;4996978;28;20474;-83
2023/01/10 08:09:55;;;;;;;14.65;4.53;;;4.90;99.90;;;;;;5014096;28;20446;-79
2023/01/10 08:12:23;;;;;;;18.38;4.93;;;4.80;99.90;;;;;;5014214;28;20056;-80
2023/01/10 08:14:49;;;;;;;21.38;5.35;;;4.80;99.90;;;;;;5014422;28;20050;-84
2023/01/10 08:17:15;;;;;;;22.20;4.82;;;4.80;99.90;;;;;;5014061;28;20049;-84
2023/01/10 08:19:40;;;;;;;19.55;4.78;;;4.80;99.90;;;;;;4996410;28;20552;-85
2023/01/10 08:22:06;;;;;;;21.10;5.28;;;4.80;99.90;;;;;;4996901;28;20042;-83
2023/01/10 08:24:31;;;;;;;19.88;5.25;;;4.70;99.90;;;;;;4996595;28;20529;-84
2023/01/10 08:26:57;;;;;;;22.55;5.40;;;4.70;99.90;;;;;;5013895;28;20049;-87
2023/01/10 08:29:23;;;;;;;25.50;5.28;;;4.70;99.90;;;;;;4996295;28;20042;-79
2023/01/10 08:31:49;;;;;;;22.27;5.18;;;4.70;99.90;;;;;;5015863;28;20397;-83
2023/01/10 08:34:15;;;;;;;23.02;5.50;;;4.70;99.90;;;;;;5000353;28;20133;-82
2023/01/10 08:36:40;;;;;;;19.10;4.70;;;4.80;99.90;;;;;;5016919;28;20064;-81
2023/01/10 08:39:06;;;;;;;22.65;4.97;;;4.80;99.90;;;;;;4999259;28;20076;-81
2023/01/10 08:41:32;;;;;;;27.73;5.65;;;4.90;99.90;;;;;;5016784;28;20041;-82
2023/01/10 08:43:58;;;;;;;29.77;5.55;;;4.90;99.90;;;;;;5016711;28;20501;-84
2023/01/10 08:46:23;;;;;;;24.40;5.13;;;5.80;99.90;;;;;;4998850;28;20501;-84
2023/01/10 08:48:50;;;;;;;17.73;4.72;;;5.00;99.90;;;;;;5016476;28;20042;-82
2023/01/10 08:51:16;;;;;;;23.67;4.72;;;5.00;99.90;;;;;;5016972;28;20104;-83
2023/01/10 08:53:42;;;;;;;26.05;5.43;;;5.10;99.90;;;;;;5000368;28;20398;-84
2023/01/10 08:56:08;;;;;;;22.52;5.28;;;5.10;99.90;;;;;;5017484;28;20041;-83
2023/01/10 08:58:34;;;;;;;28.65;5.03;;;5.00;99.90;;;;;;5000339;28;20049;-82
2023/01/10 09:01:08;;;;;;;12.75;4.32;;;5.10;99.90;;;;;;5005647;28;20136;-83
2023/01/10 09:03:34;;;;;;;19.75;5.63;;;5.70;99.90;;;;;;5017711;28;20046;-84
2023/01/10 09:06:00;;;;;;;21.63;5.53;;;5.10;99.90;;;;;;5000321;28;20050;-84
2023/01/10 09:08:27;;;;;;;21.05;4.47;;;5.20;99.90;;;;;;5017229;28;20038;-84
2023/01/10 09:10:53;;;;;;;16.77;4.22;;;5.20;99.90;;;;;;4999734;28;20053;-83
2023/01/10 09:13:19;;;;;;;16.67;4.70;;;5.30;99.90;;;;;;5017246;28;20092;-82
2023/01/10 09:15:45;;;;;;;19.73;4.37;;;5.30;99.90;;;;;;5017193;28;20050;-83
2023/01/10 09:18:12;;;;;;;20.67;4.20;;;5.40;99.90;;;;;;4999922;28;20125;-83
2023/01/10 09:20:40;;;;;;;18.15;4.38;;;5.40;99.90;;;;;;5017310;28;20050;-81
2023/01/10 09:23:11;;;;;;;19.77;4.93;;;5.50;99.90;;;;;;4999729;28;20037;-81
2023/01/10 09:25:37;;;;;;;21.42;4.82;;;5.60;99.90;;;;;;5017034;28;20042;-82
2023/01/10 09:28:03;;;;;;;17.23;4.27;;;5.60;99.90;;;;;;4999565;28;20133;-84
2023/01/10 09:30:31;;;;;;;31.95;5.65;;;5.70;99.90;;;;;;4999554;28;20042;-82
2023/01/10 09:32:57;;;;;;;27.90;5.07;;;5.70;99.90;;;;;;5016861;28;20060;-82
2023/01/10 09:35:24;;;;;;;22.00;5.47;;;5.80;99.90;;;;;;5016869;28;20049;-83
2023/01/10 09:37:54;;;;;;;21.35;5.20;;;5.80;99.90;;;;;;5018665;28;20440;-81
2023/01/10 09:40:41;;;;;;;26.30;6.38;;;5.80;99.90;;;;;;5018704;28;20459;-82
2023/01/10 09:43:28;;;;;;;25.75;5.75;;;5.90;99.90;;;;;;5036053;28;20046;-81
2023/01/10 09:46:26;;;;;;;22.55;5.50;;;5.90;99.90;;;;;;5037038;28;20402;-83
2023/01/10 09:49:04;;;;;;;25.08;6.93;;;5.90;99.90;;;;;;4987041;28;20061;-83
2023/01/10 09:51:36;;;;;;;17.00;5.75;;;6.00;99.90;;;;;;5036218;28;20049;-85
2023/01/10 09:54:05;;;;;;;24.15;5.88;;;6.00;99.90;;;;;;5036175;28;20045;-83
2023/01/10 09:56:32;;;;;;;24.20;6.45;;;6.00;99.90;;;;;;5018582;28;20379;-83
2023/01/10 09:58:59;;;;;;;23.92;6.93;;;6.10;99.90;;;;;;5019000;28;20049;-82
2023/01/10 10:01:31;;;;;;;22.10;6.00;;;6.10;99.90;;;;;;5039772;28;20050;-81
2023/01/10 10:04:22;;;;;;;24.38;6.57;;;6.10;99.90;;;;;;5021132;28;20048;-82
2023/01/10 10:06:52;;;;;;;20.50;6.90;;;6.20;99.90;;;;;;5019021;28;20045;-81
2023/01/10 10:09:30;;;;;;;23.67;7.13;;;6.30;99.90;;;;;;5018654;28;20050;-84
2023/01/10 10:11:58;;;;;;;20.67;6.85;;;6.30;99.90;;;;;;5035913;28;20045;-83
2023/01/10 10:14:56;;;;;;;22.88;7.15;;;6.70;99.90;;;;;;5018338;28;20137;-83
2023/01/10 10:17:48;;;;;;;26.27;7.22;;;6.40;99.90;;;;;;5036145;28;20053;-81
2023/01/10 10:20:29;;;;;;;22.48;6.70;;;6.40;99.90;;;;;;5035875;28;20044;-84
2023/01/10 10:23:23;;;;;;;17.33;6.95;;;6.40;99.90;;;;;;5018178;28;20045;-81
2023/01/10 10:26:10;;;;;;;25.88;7.15;;;6.40;99.90;;;;;;5035793;28;20057;-83
2023/01/10 10:28:44;;;;;;;23.73;6.73;;;6.50;99.90;;;;;;5035577;28;20046;-82
2023/01/10 10:31:20;;;;;;;22.77;6.45;;;6.50;99.90;;;;;;5035480;28;20499;-83
2023/01/10 10:33:55;;;;;;;20.88;6.88;;;6.50;99.90;;;;;;5017896;28;20041;-82
2023/01/10 10:36:25;;;;;;;23.70;7.00;;;6.50;99.90;;;;;;5017811;28;20054;-85
2023/01/10 10:38:53;;;;;;;20.75;6.45;;;6.60;99.90;;;;;;5035423;28;20053;-83
2023/01/10 10:41:27;;;;;;;28.58;6.68;;;6.60;99.90;;;;;;5035477;28;20512;-84
2023/01/10 10:43:54;;;;;;;28.42;7.03;;;6.60;99.90;;;;;;5017722;28;20056;-80
2023/01/10 10:46:21;;;;;;;25.50;7.18;;;6.70;99.90;;;;;;5035210;28;20053;-83
2023/01/10 10:48:56;;;;;;;25.70;6.55;;;6.70;99.90;;;;;;5017543;28;20155;-81
2023/01/10 10:51:34;;;;;;;22.52;7.10;;;6.70;99.90;;;;;;5017931;28;20394;-83
2023/01/10 10:54:00;;;;;;;;;;;6.70;99.90;;;;;;5017334;28;20056;-82
2023/01/10 10:56:26;;;;;;;23.25;6.70;;;6.70;99.90;;;;;;5017130;28;19921;-82
2023/01/10 10:58:55;;;;;;;22.27;6.85;;;6.70;99.90;;;;;;5034900;28;20042;-84
2023/01/10 11:01:21;;;;;;;24.80;6.05;;;6.70;99.90;;;;;;5017480;28;20041;-83
2023/01/10 11:03:51;;;;;;;25.85;5.78;;;6.70;99.90;;;;;;5022980;28;20087;-81
2023/01/10 11:06:19;;;;;;;26.40;6.40;;;6.70;99.90;;;;;;5019136;28;20045;-83
2023/01/10 11:08:46;;;;;;;;;;;6.70;99.90;;;;;;5035466;28;20118;-81
2023/01/10 11:11:23;;;;;;;23.85;6.80;;;6.80;99.90;;;;;;5017160;28;19925;-81
2023/01/10 11:13:58;;;;;;;20.85;5.72;;;6.70;99.90;;;;;;5035124;28;20053;-83
2023/01/10 11:16:35;;;;;;;22.45;5.22;;;6.80;99.90;;;;;;5017392;28;20508;-82
2023/01/10 11:19:09;;;;;;;;;;;6.80;99.90;;;;;;5035393;28;20496;-81
2023/01/10 11:21:35;;;;;;;19.48;4.95;;;6.80;99.90;;;;;;5017120;28;19931;-84
2023/01/10 11:24:00;;;;;;;15.75;4.45;;;7.10;99.90;;;;;;5034505;28;20045;-82
2023/01/10 11:26:39;;;;;;;23.83;5.10;;;6.80;99.90;;;;;;5034777;28;20045;-84
2023/01/10 11:29:16;;;;;;;22.95;4.60;;;6.90;99.90;;;;;;5034347;28;20060;-83
2023/01/10 11:31:43;;;;;;;16.33;4.38;;;6.90;99.90;;;;;;5034225;28;20072;-80
2023/01/10 11:34:28;;;;;;;;;;;6.90;99.90;;;;;;5016935;28;20056;-81
2023/01/10 11:37:00;;;;;;;19.75;4.55;;;6.90;99.90;;;;;;5021925;28;19925;-80
2023/01/10 11:39:27;;;;;;;18.88;4.22;;;6.90;99.90;;;;;;4981068;28;20050;-82
2023/01/10 11:41:54;;;;;;;25.60;6.60;;;6.90;99.90;;;;;;5014424;28;20046;-82
2023/01/10 11:44:23;;;;;;;;;;;7.20;99.90;;;;;;4997673;28;20124;-84
2023/01/10 11:46:52;;;;;;;20.95;4.95;;;6.90;99.90;;;;;;5014920;28;19921;-80
2023/01/10 11:49:26;;;;;;;22.70;4.95;;;6.90;99.90;;;;;;5014352;28;20406;-83
2023/01/10 11:51:58;;;;;;;19.83;5.32;;;6.90;99.90;;;;;;5015572;28;20041;-83
2023/01/10 11:54:26;;;;;;;20.30;4.95;;;6.90;99.90;;;;;;4997894;28;20414;-82
2023/01/10 11:57:09;;;;;;;16.13;4.28;;;6.90;99.90;;;;;;4997334;28;20052;-80
2023/01/10 11:59:34;;;;;;;21.05;4.60;;;6.90;99.90;;;;;;4998112;28;20080;-82
2023/01/10 12:02:24;;;;;;;21.67;5.63;;;6.90;99.90;;;;;;5014635;28;20053;-82
2023/01/10 12:04:51;;;;;;;24.67;5.80;;;6.90;99.90;;;;;;5018835;28;20049;-82
2023/01/10 12:07:21;;;;;;;;;;;6.90;99.90;;;;;;5015846;28;20084;-83
2023/01/10 12:09:55;;;;;;;18.23;4.45;;;6.80;99.90;;;;;;5013963;28;20373;-84
2023/01/10 12:12:24;;;;;;;24.02;5.00;;;7.40;99.90;;;;;;5013944;28;20046;-83
2023/01/10 12:14:58;;;;;;;23.20;6.32;;;7.30;99.90;;;;;;4983887;28;20036;-81
2023/01/10 12:17:29;;;;;;;21.50;5.10;;;6.80;99.90;;;;;;5009974;28;20061;-81
2023/01/10 12:19:59;;;;;;;23.33;5.00;;;6.80;99.90;;;;;;5001105;28;20046;-81
2023/01/10 12:22:35;;;;;;;14.93;4.50;;;6.80;99.90;;;;;;4990643;28;20046;-86
2023/01/10 12:25:27;;;;;;;16.10;3.88;;;6.80;99.90;;;;;;4998569;28;20045;-85
2023/01/10 12:27:56;;;;;;;18.70;4.55;;;6.80;99.90;;;;;;4984698;28;20397;-84
2023/01/10 12:30:32;;;;;;;19.52;4.32;;;6.80;99.90;;;;;;5001819;28;20545;-83
2023/01/10 12:33:02;;;;;;;18.15;4.72;;;6.70;99.90;;;;;;4996539;28;20045;-84
2023/01/10 12:35:47;;;;;;;19.30;4.40;;;6.70;99.90;;;;;;4996676;28;20481;-87
2023/01/10 12:44:40;;;;;;;20.60;4.97;;;6.60;99.90;;;;;;5017046;28;20049;-90
2023/01/10 12:47:31;;;;;;;19.38;4.03;;;6.60;99.90;;;;;;5034741;28;20500;-92
2023/01/10 12:50:12;;;;;;;18.95;4.65;;;6.60;99.90;;;;;;5016981;28;20367;-86
2023/01/10 12:52:55;;;;;;;19.92;4.65;;;6.60;99.90;;;;;;5015983;28;20128;-81
2023/01/10 12:55:24;;;;;;;17.60;4.50;;;6.40;99.90;;;;;;5033496;28;20077;-82
2023/01/10 12:57:54;;;;;;;21.50;4.55;;;6.50;99.90;;;;;;5000534;28;20096;-83
2023/01/10 13:00:23;;;;;;;16.77;4.68;;;6.50;99.90;;;;;;5015865;28;20054;-87
2023/01/10 13:02:53;;;;;;;22.98;5.47;;;6.50;99.90;;;;;;4999651;28;20041;-85
2023/01/10 13:05:22;;;;;;;24.67;5.35;;;6.50;99.90;;;;;;5016438;28;20478;-84
2023/01/10 13:07:50;;;;;;;19.90;5.32;;;7.40;99.90;;;;;;5037605;28;20045;-84
2023/01/10 13:10:20;;;;;;;21.42;5.47;;;6.50;99.90;;;;;;5015661;28;20081;-85
2023/01/10 13:12:56;;;;;;;21.95;5.28;;;6.50;99.90;;;;;;5033662;28;20060;-85
2023/01/10 13:15:34;;;;;;;22.80;5.15;;;6.50;99.90;;;;;;5015817;28;20378;-85
2023/01/10 13:18:02;;;;;;;;;;;6.40;99.90;;;;;;5018433;28;20089;-81
2023/01/10 13:20:36;;;;;;;24.45;5.65;;;6.40;99.90;;;;;;5036684;28;19925;-84